sensor_id;sensor_type;location;lat;lon;timestamp;pressure;altitude;pressure_sealevel;temperature;humidity
12146;BME280;6136;47.032;15.398;2023-03-26T00:00:00;97154.88;;;3.28;100.00
12146;BME280;6136;47.032;15.398;2023-03-26T00:02:38;97161.88;;;3.28;100.00
12146;BME280;6136;47.032;15.398;2023-03-26T00:05:08;97159.44;;;3.23;100.00
12146;BME280;6136;47.032;15.398;2023-03-26T00:07:36;97160.47;;;3.19;100.00
12146;BME280;6136;47.032;15.398;2023-03-26T00:10:05;97158.09;;;3.13;100.00
12146;BME280;6136;47.032;15.398;2023-03-26T00:12:35;97161.69;;;3.10;100.00
12146;BME280;6136;47.032;15.398;2023-03-26T00:15:04;97171.19;;;3.13;100.00
12146;BME280;6136;47.032;15.398;2023-03-26T00:17:33;97156.38;;;3.12;100.00
12146;BME280;6136;47.032;15.398;2023-03-26T00:20:01;97159.13;;;3.09;100.00
12146;BME280;6136;47.032;15.398;2023-03-26T00:22:30;97146.84;;;3.11;100.00
12146;BME280;6136;47.032;15.398;2023-03-26T00:24:59;97152.84;;;3.13;100.00
12146;BME280;6136;47.032;15.398;2023-03-26T00:27:27;97147.66;;;3.11;100.00
12146;BME280;6136;47.032;15.398;2023-03-26T00:29:56;97147.97;;;3.04;100.00
12146;BME280;6136;47.032;15.398;2023-03-26T00:32:27;97160.16;;;3.05;100.00
12146;BME280;6136;47.032;15.398;2023-03-26T00:34:56;97145.28;;;3.05;100.00
12146;BME280;6136;47.032;15.398;2023-03-26T00:37:25;97155.16;;;2.99;100.00
12146;BME280;6136;47.032;15.398;2023-03-26T00:39:53;97153.34;;;3.01;100.00
12146;BME280;6136;47.032;15.398;2023-03-26T00:42:27;97143.13;;;2.95;100.00
12146;BME280;6136;47.032;15.398;2023-03-26T00:44:57;97152.59;;;2.97;100.00
12146;BME280;6136;47.032;15.398;2023-03-26T00:47:26;97143.22;;;2.92;100.00
12146;BME280;6136;47.032;15.398;2023-03-26T00:49:55;97140.28;;;2.78;100.00
12146;BME280;6136;47.032;15.398;2023-03-26T00:52:23;97148.19;;;2.76;100.00
12146;BME280;6136;47.032;15.398;2023-03-26T00:54:54;97150.81;;;2.76;100.00
12146;BME280;6136;47.032;15.398;2023-03-26T00:57:22;97150.13;;;2.71;100.00
12146;BME280;6136;47.032;15.398;2023-03-26T01:00:07;97140.53;;;2.71;100.00
12146;BME280;6136;47.032;15.398;2023-03-26T01:02:36;97144.94;;;2.69;100.00
12146;BME280;6136;47.032;15.398;2023-03-26T01:08:18;97136.31;;;2.67;100.00
12146;BME280;6136;47.032;15.398;2023-03-26T01:10:49;97126.88;;;2.63;100.00
12146;BME280;6136;47.032;15.398;2023-03-26T01:13:18;97137.28;;;2.65;100.00
12146;BME280;6136;47.032;15.398;2023-03-26T01:15:49;97137.09;;;2.69;100.00
12146;BME280;6136;47.032;15.398;2023-03-26T01:18:21;97134.97;;;2.57;100.00
12146;BME280;6136;47.032;15.398;2023-03-26T01:20:54;97124.59;;;2.54;100.00
12146;BME280;6136;47.032;15.398;2023-03-26T01:23:37;97117.94;;;2.46;100.00
12146;BME280;6136;47.032;15.398;2023-03-26T01:26:18;97100.69;;;2.42;100.00
12146;BME280;6136;47.032;15.398;2023-03-26T01:28:54;97100.16;;;2.32;100.00
12146;BME280;6136;47.032;15.398;2023-03-26T01:31:27;97103.69;;;2.31;100.00
12146;BME280;6136;47.032;15.398;2023-03-26T01:34:07;97102.63;;;2.37;100.00
12146;BME280;6136;47.032;15.398;2023-03-26T01:36:43;97097.22;;;2.41;100.00
12146;BME280;6136;47.032;15.398;2023-03-26T01:39:18;97096.75;;;2.30;100.00
12146;BME280;6136;47.032;15.398;2023-03-26T01:41:56;97097.72;;;2.27;100.00
12146;BME280;6136;47.032;15.398;2023-03-26T01:44:30;97092.91;;;2.40;100.00
12146;BME280;6136;47.032;15.398;2023-03-26T01:47:02;97088.00;;;2.54;100.00
12146;BME280;6136;47.032;15.398;2023-03-26T01:49:32;97082.59;;;2.59;100.00
12146;BME280;6136;47.032;15.398;2023-03-26T01:52:00;97079.00;;;2.61;100.00
12146;BME280;6136;47.032;15.398;2023-03-26T01:54:29;97063.50;;;2.57;100.00
12146;BME280;6136;47.032;15.398;2023-03-26T01:57:08;97076.53;;;2.58;100.00
12146;BME280;6136;47.032;15.398;2023-03-26T01:59:48;97073.00;;;2.59;100.00
12146;BME280;6136;47.032;15.398;2023-03-26T02:02:25;97078.28;;;2.58;100.00
12146;BME280;6136;47.032;15.398;2023-03-26T02:04:58;97076.00;;;2.49;100.00
12146;BME280;6136;47.032;15.398;2023-03-26T02:07:32;97088.00;;;2.54;100.00
12146;BME280;6136;47.032;15.398;2023-03-26T02:10:07;97103.00;;;2.49;100.00
12146;BME280;6136;47.032;15.398;2023-03-26T02:12:41;97103.16;;;2.45;100.00
12146;BME280;6136;47.032;15.398;2023-03-26T02:15:11;97103.16;;;2.45;100.00
12146;BME280;6136;47.032;15.398;2023-03-26T02:17:39;97099.94;;;2.38;100.00
12146;BME280;6136;47.032;15.398;2023-03-26T02:20:10;97093.22;;;2.31;100.00
12146;BME280;6136;47.032;15.398;2023-03-26T02:22:40;97095.97;;;2.28;100.00
12146;BME280;6136;47.032;15.398;2023-03-26T02:25:15;97091.75;;;2.24;100.00
12146;BME280;6136;47.032;15.398;2023-03-26T02:27:46;97082.19;;;2.23;100.00
12146;BME280;6136;47.032;15.398;2023-03-26T02:30:18;97084.94;;;2.20;100.00
12146;BME280;6136;47.032;15.398;2023-03-26T02:32:49;97070.50;;;2.10;100.00
12146;BME280;6136;47.032;15.398;2023-03-26T02:35:21;97083.56;;;2.10;100.00
12146;BME280;6136;47.032;15.398;2023-03-26T02:37:55;97095.78;;;2.09;100.00
12146;BME280;6136;47.032;15.398;2023-03-26T02:40:23;97100.44;;;2.01;100.00
12146;BME280;6136;47.032;15.398;2023-03-26T02:42:53;97086.50;;;2.01;100.00
12146;BME280;6136;47.032;15.398;2023-03-26T02:45:22;97085.16;;;1.90;100.00
12146;BME280;6136;47.032;15.398;2023-03-26T02:48:13;97108.66;;;1.90;100.00
12146;BME280;6136;47.032;15.398;2023-03-26T02:50:44;97101.81;;;1.86;100.00
12146;BME280;6136;47.032;15.398;2023-03-26T02:53:34;97096.72;;;1.83;100.00
12146;BME280;6136;47.032;15.398;2023-03-26T02:56:20;97102.16;;;1.77;100.00
12146;BME280;6136;47.032;15.398;2023-03-26T02:59:02;97095.88;;;1.83;100.00
12146;BME280;6136;47.032;15.398;2023-03-26T03:01:31;97091.72;;;1.77;100.00
12146;BME280;6136;47.032;15.398;2023-03-26T03:04:01;97100.47;;;1.76;100.00
12146;BME280;6136;47.032;15.398;2023-03-26T03:06:34;97111.91;;;1.72;100.00
12146;BME280;6136;47.032;15.398;2023-03-26T03:09:04;97101.44;;;1.72;100.00
12146;BME280;6136;47.032;15.398;2023-03-26T03:11:34;97106.84;;;1.68;100.00
12146;BME280;6136;47.032;15.398;2023-03-26T03:14:05;97099.81;;;1.70;100.00
12146;BME280;6136;47.032;15.398;2023-03-26T03:16:34;97108.59;;;1.67;100.00
12146;BME280;6136;47.032;15.398;2023-03-26T03:19:08;97112.16;;;1.65;100.00
12146;BME280;6136;47.032;15.398;2023-03-26T03:21:38;97106.91;;;1.66;100.00
12146;BME280;6136;47.032;15.398;2023-03-26T03:24:09;97099.97;;;1.65;100.00
12146;BME280;6136;47.032;15.398;2023-03-26T03:26:43;97104.38;;;1.63;100.00
12146;BME280;6136;47.032;15.398;2023-03-26T03:29:53;97097.66;;;1.56;100.00
12146;BME280;6136;47.032;15.398;2023-03-26T03:32:40;97094.28;;;1.54;100.00
12146;BME280;6136;47.032;15.398;2023-03-26T03:35:09;97092.56;;;1.53;100.00
12146;BME280;6136;47.032;15.398;2023-03-26T03:37:39;97098.69;;;1.52;100.00
12146;BME280;6136;47.032;15.398;2023-03-26T03:40:08;97095.16;;;1.53;100.00
12146;BME280;6136;47.032;15.398;2023-03-26T03:42:38;97092.66;;;1.50;100.00
12146;BME280;6136;47.032;15.398;2023-03-26T03:45:10;97104.13;;;1.46;100.00
12146;BME280;6136;47.032;15.398;2023-03-26T03:47:56;97093.69;;;1.46;100.00
12146;BME280;6136;47.032;15.398;2023-03-26T03:50:41;97100.69;;;1.44;100.00
12146;BME280;6136;47.032;15.398;2023-03-26T03:53:20;97101.38;;;1.49;100.00
12146;BME280;6136;47.032;15.398;2023-03-26T03:55:53;97099.59;;;1.51;100.00
12146;BME280;6136;47.032;15.398;2023-03-26T03:58:27;97102.41;;;1.45;100.00
12146;BME280;6136;47.032;15.398;2023-03-26T04:01:05;97099.84;;;1.43;100.00
12146;BME280;6136;47.032;15.398;2023-03-26T04:03:51;97107.13;;;1.34;100.00
12146;BME280;6136;47.032;15.398;2023-03-26T04:06:23;97114.25;;;1.29;100.00
12146;BME280;6136;47.032;15.398;2023-03-26T04:08:52;97114.38;;;1.26;100.00
12146;BME280;6136;47.032;15.398;2023-03-26T04:11:21;97111.91;;;1.21;100.00
12146;BME280;6136;47.032;15.398;2023-03-26T04:14:08;97110.19;;;1.20;100.00
12146;BME280;6136;47.032;15.398;2023-03-26T04:17:07;97114.38;;;1.26;100.00
12146;BME280;6136;47.032;15.398;2023-03-26T04:19:37;97114.94;;;1.34;100.00
12146;BME280;6136;47.032;15.398;2023-03-26T04:22:08;97118.63;;;1.28;100.00
12146;BME280;6136;47.032;15.398;2023-03-26T04:24:49;97116.16;;;1.24;100.00
12146;BME280;6136;47.032;15.398;2023-03-26T04:27:30;97111.59;;;1.30;100.00
12146;BME280;6136;47.032;15.398;2023-03-26T04:30:33;97115.06;;;1.31;100.00
12146;BME280;6136;47.032;15.398;2023-03-26T04:33:15;97107.22;;;1.31;100.00
12146;BME280;6136;47.032;15.398;2023-03-26T04:35:43;97104.84;;;1.25;100.00
12146;BME280;6136;47.032;15.398;2023-03-26T04:38:15;97101.38;;;1.24;100.00
12146;BME280;6136;47.032;15.398;2023-03-26T04:40:47;97106.38;;;1.30;100.00
12146;BME280;6136;47.032;15.398;2023-03-26T04:43:41;97096.63;;;1.35;100.00
12146;BME280;6136;47.032;15.398;2023-03-26T04:46:32;97094.03;;;1.35;100.00
12146;BME280;6136;47.032;15.398;2023-03-26T04:49:22;97095.09;;;1.30;100.00
12146;BME280;6136;47.032;15.398;2023-03-26T04:51:50;97088.13;;;1.30;100.00
12146;BME280;6136;47.032;15.398;2023-03-26T04:54:42;97089.69;;;1.34;100.00
12146;BME280;6136;47.032;15.398;2023-03-26T04:57:16;97090.47;;;1.38;100.00
12146;BME280;6136;47.032;15.398;2023-03-26T04:59:52;97099.09;;;1.40;100.00
12146;BME280;6136;47.032;15.398;2023-03-26T05:02:20;97102.44;;;1.43;100.00
12146;BME280;6136;47.032;15.398;2023-03-26T05:04:53;97093.56;;;1.49;100.00
12146;BME280;6136;47.032;15.398;2023-03-26T05:07:26;97092.88;;;1.44;100.00
12146;BME280;6136;47.032;15.398;2023-03-26T05:09:56;97086.91;;;1.40;100.00
12146;BME280;6136;47.032;15.398;2023-03-26T05:12:36;97086.75;;;1.45;100.00
12146;BME280;6136;47.032;15.398;2023-03-26T05:15:13;97081.63;;;1.42;100.00
12146;BME280;6136;47.032;15.398;2023-03-26T05:17:58;97073.47;;;1.51;100.00
12146;BME280;6136;47.032;15.398;2023-03-26T05:20:47;97082.59;;;1.64;100.00
12146;BME280;6136;47.032;15.398;2023-03-26T05:23:15;97072.03;;;1.67;100.00
12146;BME280;6136;47.032;15.398;2023-03-26T05:25:50;97079.03;;;1.67;100.00
12146;BME280;6136;47.032;15.398;2023-03-26T05:28:21;97081.38;;;1.74;100.00
12146;BME280;6136;47.032;15.398;2023-03-26T05:31:00;97075.81;;;1.83;100.00
12146;BME280;6136;47.032;15.398;2023-03-26T05:33:33;97063.44;;;1.88;100.00
12146;BME280;6136;47.032;15.398;2023-03-26T05:36:10;97071.88;;;1.97;100.00
12146;BME280;6136;47.032;15.398;2023-03-26T05:38:48;97081.13;;;2.05;100.00
12146;BME280;6136;47.032;15.398;2023-03-26T05:41:53;97072.03;;;2.15;100.00
12146;BME280;6136;47.032;15.398;2023-03-26T05:44:28;97064.13;;;2.17;100.00
12146;BME280;6136;47.032;15.398;2023-03-26T05:47:00;97065.63;;;2.24;100.00
12146;BME280;6136;47.032;15.398;2023-03-26T05:49:29;97063.56;;;2.32;100.00
12146;BME280;6136;47.032;15.398;2023-03-26T05:51:59;97057.09;;;2.42;100.00
12146;BME280;6136;47.032;15.398;2023-03-26T05:54:53;97059.84;;;2.61;100.00
12146;BME280;6136;47.032;15.398;2023-03-26T05:57:40;97066.22;;;2.76;100.00
12146;BME280;6136;47.032;15.398;2023-03-26T06:00:38;97076.44;;;2.82;100.00
12146;BME280;6136;47.032;15.398;2023-03-26T06:03:08;97079.63;;;2.90;100.00
12146;BME280;6136;47.032;15.398;2023-03-26T06:05:47;97067.16;;;2.96;100.00
12146;BME280;6136;47.032;15.398;2023-03-26T06:08:21;97069.59;;;3.01;100.00
12146;BME280;6136;47.032;15.398;2023-03-26T06:10:57;97065.63;;;3.12;100.00
12146;BME280;6136;47.032;15.398;2023-03-26T06:13:26;97062.94;;;3.14;100.00
12146;BME280;6136;47.032;15.398;2023-03-26T06:15:56;97055.09;;;3.34;100.00
12146;BME280;6136;47.032;15.398;2023-03-26T06:18:33;97068.34;;;3.51;100.00
12146;BME280;6136;47.032;15.398;2023-03-26T06:21:25;97067.19;;;3.59;100.00
12146;BME280;6136;47.032;15.398;2023-03-26T06:23:59;97070.19;;;3.70;100.00
12146;BME280;6136;47.032;15.398;2023-03-26T06:26:46;97068.16;;;3.56;100.00
12146;BME280;6136;47.032;15.398;2023-03-26T06:29:23;97074.59;;;3.69;100.00
12146;BME280;6136;47.032;15.398;2023-03-26T06:31:56;97069.28;;;3.91;100.00
12146;BME280;6136;47.032;15.398;2023-03-26T06:34:49;97061.88;;;4.19;100.00
12146;BME280;6136;47.032;15.398;2023-03-26T06:37:18;97056.97;;;4.30;100.00
12146;BME280;6136;47.032;15.398;2023-03-26T06:39:49;97054.88;;;4.57;100.00
12146;BME280;6136;47.032;15.398;2023-03-26T06:42:19;97066.50;;;4.71;100.00
12146;BME280;6136;47.032;15.398;2023-03-26T06:45:26;97069.63;;;4.79;100.00
12146;BME280;6136;47.032;15.398;2023-03-26T06:48:13;97057.84;;;5.04;100.00
12146;BME280;6136;47.032;15.398;2023-03-26T06:50:55;97068.72;;;5.16;100.00
12146;BME280;6136;47.032;15.398;2023-03-26T06:53:49;97073.63;;;5.04;100.00
12146;BME280;6136;47.032;15.398;2023-03-26T06:56:39;97075.63;;;4.99;100.00
12146;BME280;6136;47.032;15.398;2023-03-26T06:59:33;97076.88;;;5.10;100.00
12146;BME280;6136;47.032;15.398;2023-03-26T07:02:19;97075.66;;;5.17;100.00
12146;BME280;6136;47.032;15.398;2023-03-26T07:05:07;97065.41;;;5.29;100.00
12146;BME280;6136;47.032;15.398;2023-03-26T07:07:53;97067.34;;;5.43;100.00
12146;BME280;6136;47.032;15.398;2023-03-26T07:10:40;97059.63;;;5.74;100.00
12146;BME280;6136;47.032;15.398;2023-03-26T07:13:28;97042.75;;;5.78;100.00
12146;BME280;6136;47.032;15.398;2023-03-26T07:16:19;97030.22;;;6.01;100.00
12146;BME280;6136;47.032;15.398;2023-03-26T07:18:54;97018.16;;;6.45;100.00
12146;BME280;6136;47.032;15.398;2023-03-26T07:21:27;97020.56;;;6.66;100.00
12146;BME280;6136;47.032;15.398;2023-03-26T07:23:56;97016.97;;;6.98;100.00
12146;BME280;6136;47.032;15.398;2023-03-26T07:26:51;97026.56;;;7.45;100.00
12146;BME280;6136;47.032;15.398;2023-03-26T07:29:35;97036.50;;;7.99;100.00
12146;BME280;6136;47.032;15.398;2023-03-26T07:32:35;97021.38;;;7.73;100.00
12146;BME280;6136;47.032;15.398;2023-03-26T07:35:19;97022.50;;;7.69;100.00
12146;BME280;6136;47.032;15.398;2023-03-26T07:38:24;97020.50;;;7.72;100.00
12146;BME280;6136;47.032;15.398;2023-03-26T07:41:10;97019.69;;;7.86;100.00
12146;BME280;6136;47.032;15.398;2023-03-26T07:44:10;97025.75;;;8.02;100.00
12146;BME280;6136;47.032;15.398;2023-03-26T07:46:47;97025.66;;;8.04;100.00
12146;BME280;6136;47.032;15.398;2023-03-26T07:49:42;97012.00;;;8.11;100.00
12146;BME280;6136;47.032;15.398;2023-03-26T07:52:13;97007.66;;;8.10;100.00
12146;BME280;6136;47.032;15.398;2023-03-26T07:55:06;96992.97;;;8.21;100.00
12146;BME280;6136;47.032;15.398;2023-03-26T07:58:01;96986.34;;;8.28;100.00
12146;BME280;6136;47.032;15.398;2023-03-26T08:00:54;96974.28;;;8.52;100.00
12146;BME280;6136;47.032;15.398;2023-03-26T08:03:30;96975.94;;;8.67;100.00
12146;BME280;6136;47.032;15.398;2023-03-26T08:06:34;96974.28;;;8.52;100.00
12146;BME280;6136;47.032;15.398;2023-03-26T08:09:27;96976.94;;;8.38;100.00
12146;BME280;6136;47.032;15.398;2023-03-26T08:12:19;96979.88;;;8.33;100.00
12146;BME280;6136;47.032;15.398;2023-03-26T08:14:55;96974.84;;;8.29;100.00
12146;BME280;6136;47.032;15.398;2023-03-26T08:17:33;96980.50;;;8.23;100.00
12146;BME280;6136;47.032;15.398;2023-03-26T08:20:14;96969.84;;;8.24;100.00
12146;BME280;6136;47.032;15.398;2023-03-26T08:22:49;96968.63;;;8.30;100.00
12146;BME280;6136;47.032;15.398;2023-03-26T08:25:26;96962.34;;;8.32;100.00
12146;BME280;6136;47.032;15.398;2023-03-26T08:28:19;96960.44;;;8.34;100.00
12146;BME280;6136;47.032;15.398;2023-03-26T08:30:50;96968.84;;;8.41;100.00
12146;BME280;6136;47.032;15.398;2023-03-26T08:33:25;96973.34;;;8.39;100.00
12146;BME280;6136;47.032;15.398;2023-03-26T08:35:55;96966.38;;;8.38;100.00
12146;BME280;6136;47.032;15.398;2023-03-26T08:38:23;96972.50;;;8.38;100.00
12146;BME280;6136;47.032;15.398;2023-03-26T08:47:55;96957.47;;;8.53;100.00
12146;BME280;6136;47.032;15.398;2023-03-26T08:50:55;96950.50;;;8.66;100.00
12146;BME280;6136;47.032;15.398;2023-03-26T08:56:46;96940.41;;;8.85;100.00
12146;BME280;6136;47.032;15.398;2023-03-26T08:59:43;96938.06;;;9.08;100.00
12146;BME280;6136;47.032;15.398;2023-03-26T09:12:13;96899.84;;;9.64;97.31
12146;BME280;6136;47.032;15.398;2023-03-26T09:15:30;96894.44;;;9.78;92.73
12146;BME280;6136;47.032;15.398;2023-03-26T09:21:34;96888.97;;;10.67;88.23
12146;BME280;6136;47.032;15.398;2023-03-26T09:24:51;96887.13;;;11.15;84.03
12146;BME280;6136;47.032;15.398;2023-03-26T09:27:36;96883.75;;;11.59;82.10
12146;BME280;6136;47.032;15.398;2023-03-26T09:30:32;96874.69;;;11.73;83.48
12146;BME280;6136;47.032;15.398;2023-03-26T09:36:20;96862.78;;;12.23;79.76
12146;BME280;6136;47.032;15.398;2023-03-26T09:38:52;96857.03;;;12.61;75.69
12146;BME280;6136;47.032;15.398;2023-03-26T09:41:40;96837.91;;;12.24;77.41
12146;BME280;6136;47.032;15.398;2023-03-26T09:44:23;96833.56;;;12.23;74.43
12146;BME280;6136;47.032;15.398;2023-03-26T09:50:03;96816.25;;;12.39;71.65
12146;BME280;6136;47.032;15.398;2023-03-26T09:53:01;96815.09;;;12.64;73.55
12146;BME280;6136;47.032;15.398;2023-03-26T09:55:44;96817.53;;;13.20;69.82
12146;BME280;6136;47.032;15.398;2023-03-26T10:01:30;96809.47;;;14.32;64.70
12146;BME280;6136;47.032;15.398;2023-03-26T10:04:36;96799.34;;;14.16;65.00
12146;BME280;6136;47.032;15.398;2023-03-26T10:07:20;96798.59;;;13.65;65.97
12146;BME280;6136;47.032;15.398;2023-03-26T10:10:00;96790.50;;;13.45;69.51
12146;BME280;6136;47.032;15.398;2023-03-26T10:12:32;96776.47;;;13.34;71.08
12146;BME280;6136;47.032;15.398;2023-03-26T10:15:25;96775.94;;;13.40;68.60
12146;BME280;6136;47.032;15.398;2023-03-26T10:18:16;96772.78;;;13.55;69.68
12146;BME280;6136;47.032;15.398;2023-03-26T10:21:00;96768.44;;;13.64;64.79
12146;BME280;6136;47.032;15.398;2023-03-26T10:23:51;96763.13;;;13.54;67.24
12146;BME280;6136;47.032;15.398;2023-03-26T10:26:32;96760.03;;;14.87;61.75
12146;BME280;6136;47.032;15.398;2023-03-26T10:29:16;96743.81;;;18.03;52.32
12146;BME280;6136;47.032;15.398;2023-03-26T10:31:50;96748.81;;;20.33;45.45
12146;BME280;6136;47.032;15.398;2023-03-26T10:34:36;96735.75;;;22.11;39.29
12146;BME280;6136;47.032;15.398;2023-03-26T10:37:14;96727.19;;;22.94;37.26
12146;BME280;6136;47.032;15.398;2023-03-26T10:40:15;96733.59;;;22.21;39.86
12146;BME280;6136;47.032;15.398;2023-03-26T10:43:10;96733.94;;;21.88;38.13
12146;BME280;6136;47.032;15.398;2023-03-26T10:46:02;96734.88;;;21.06;40.65
12146;BME280;6136;47.032;15.398;2023-03-26T10:48:49;96733.47;;;20.95;39.83
12146;BME280;6136;47.032;15.398;2023-03-26T10:51:39;96724.59;;;18.66;45.41
12146;BME280;6136;47.032;15.398;2023-03-26T10:54:20;96731.22;;;17.95;48.63
12146;BME280;6136;47.032;15.398;2023-03-26T10:56:54;96719.03;;;17.41;51.54
12146;BME280;6136;47.032;15.398;2023-03-26T10:59:25;96717.06;;;17.51;50.14
12146;BME280;6136;47.032;15.398;2023-03-26T11:02:14;96710.66;;;19.11;47.46
12146;BME280;6136;47.032;15.398;2023-03-26T11:05:07;96707.88;;;19.75;46.80
12146;BME280;6136;47.032;15.398;2023-03-26T11:07:50;96707.38;;;20.96;42.28
12146;BME280;6136;47.032;15.398;2023-03-26T11:10:26;96695.28;;;20.69;42.80
12146;BME280;6136;47.032;15.398;2023-03-26T11:13:04;96694.75;;;19.81;44.95
12146;BME280;6136;47.032;15.398;2023-03-26T11:15:37;96679.06;;;19.21;47.38
12146;BME280;6136;47.032;15.398;2023-03-26T11:18:13;96681.41;;;20.34;42.85
12146;BME280;6136;47.032;15.398;2023-03-26T11:20:47;96678.94;;;20.47;43.12
12146;BME280;6136;47.032;15.398;2023-03-26T11:23:28;96668.94;;;21.83;40.14
12146;BME280;6136;47.032;15.398;2023-03-26T11:26:13;96671.31;;;20.36;43.59
12146;BME280;6136;47.032;15.398;2023-03-26T11:29:08;96659.66;;;18.70;47.50
12146;BME280;6136;47.032;15.398;2023-03-26T11:32:04;96647.84;;;18.06;51.56
12146;BME280;6136;47.032;15.398;2023-03-26T11:34:36;96638.16;;;18.46;51.42
12146;BME280;6136;47.032;15.398;2023-03-26T11:37:10;96634.66;;;18.78;49.68
12146;BME280;6136;47.032;15.398;2023-03-26T11:39:47;96633.38;;;19.92;47.75
12146;BME280;6136;47.032;15.398;2023-03-26T11:42:20;96617.00;;;20.93;45.05
12146;BME280;6136;47.032;15.398;2023-03-26T11:44:53;96615.06;;;21.02;44.09
12146;BME280;6136;47.032;15.398;2023-03-26T11:47:28;96613.44;;;21.74;42.90
12146;BME280;6136;47.032;15.398;2023-03-26T11:49:59;96608.81;;;22.61;39.77
12146;BME280;6136;47.032;15.398;2023-03-26T11:52:29;96607.59;;;21.26;42.91
12146;BME280;6136;47.032;15.398;2023-03-26T11:54:58;96592.34;;;21.63;42.79
12146;BME280;6136;47.032;15.398;2023-03-26T11:57:30;96590.69;;;21.47;42.81
12146;BME280;6136;47.032;15.398;2023-03-26T12:00:02;96579.09;;;22.61;41.12
12146;BME280;6136;47.032;15.398;2023-03-26T12:02:42;96560.19;;;22.82;40.42
12146;BME280;6136;47.032;15.398;2023-03-26T12:05:16;96560.00;;;23.12;40.49
12146;BME280;6136;47.032;15.398;2023-03-26T12:07:51;96551.63;;;23.76;38.42
12146;BME280;6136;47.032;15.398;2023-03-26T12:10:28;96541.72;;;24.09;36.86
12146;BME280;6136;47.032;15.398;2023-03-26T12:13:00;96552.22;;;23.30;38.38
12146;BME280;6136;47.032;15.398;2023-03-26T12:15:29;96535.88;;;22.82;39.39
12146;BME280;6136;47.032;15.398;2023-03-26T12:18:17;96534.75;;;23.74;38.66
12146;BME280;6136;47.032;15.398;2023-03-26T12:20:46;96516.03;;;23.79;38.29
12146;BME280;6136;47.032;15.398;2023-03-26T12:23:35;96509.41;;;22.71;40.29
12146;BME280;6136;47.032;15.398;2023-03-26T12:26:14;96501.56;;;22.06;42.25
12146;BME280;6136;47.032;15.398;2023-03-26T12:28:44;96496.19;;;21.70;42.79
12146;BME280;6136;47.032;15.398;2023-03-26T12:31:13;96495.09;;;22.50;39.44
12146;BME280;6136;47.032;15.398;2023-03-26T12:33:49;96497.38;;;23.02;39.68
12146;BME280;6136;47.032;15.398;2023-03-26T12:36:20;96482.13;;;23.83;39.55
12146;BME280;6136;47.032;15.398;2023-03-26T12:38:52;96479.06;;;24.06;37.52
12146;BME280;6136;47.032;15.398;2023-03-26T12:41:42;96476.25;;;22.28;42.01
12146;BME280;6136;47.032;15.398;2023-03-26T12:44:33;96469.72;;;20.79;43.65
12146;BME280;6136;47.032;15.398;2023-03-26T12:47:26;96475.34;;;21.13;44.37
12146;BME280;6136;47.032;15.398;2023-03-26T12:50:15;96474.16;;;21.01;43.20
12146;BME280;6136;47.032;15.398;2023-03-26T12:53:11;96460.06;;;21.50;41.84
12146;BME280;6136;47.032;15.398;2023-03-26T12:55:52;96460.59;;;21.60;43.41
12146;BME280;6136;47.032;15.398;2023-03-26T12:58:57;96453.16;;;22.26;39.47
12146;BME280;6136;47.032;15.398;2023-03-26T13:01:39;96451.84;;;21.07;42.38
12146;BME280;6136;47.032;15.398;2023-03-26T13:07:47;96450.53;;;19.08;47.71
12146;BME280;6136;47.032;15.398;2023-03-26T13:10:33;96440.97;;;19.05;47.28
12146;BME280;6136;47.032;15.398;2023-03-26T13:13:14;96440.03;;;18.27;49.61
12146;BME280;6136;47.032;15.398;2023-03-26T13:15:49;96432.81;;;18.35;49.33
12146;BME280;6136;47.032;15.398;2023-03-26T13:18:29;96426.31;;;18.05;51.44
12146;BME280;6136;47.032;15.398;2023-03-26T13:21:05;96421.53;;;18.48;51.37
12146;BME280;6136;47.032;15.398;2023-03-26T13:23:43;96421.88;;;18.45;52.87
12146;BME280;6136;47.032;15.398;2023-03-26T13:26:26;96412.19;;;18.83;53.04
12146;BME280;6136;47.032;15.398;2023-03-26T13:29:00;96407.81;;;19.21;50.46
12146;BME280;6136;47.032;15.398;2023-03-26T13:31:38;96404.91;;;18.60;51.86
12146;BME280;6136;47.032;15.398;2023-03-26T13:34:16;96396.63;;;18.78;51.39
12146;BME280;6136;47.032;15.398;2023-03-26T13:36:59;96393.69;;;18.49;51.45
12146;BME280;6136;47.032;15.398;2023-03-26T13:39:38;96387.09;;;18.20;52.69
12146;BME280;6136;47.032;15.398;2023-03-26T13:42:24;96373.84;;;18.19;50.17
12146;BME280;6136;47.032;15.398;2023-03-26T13:45:04;96363.84;;;17.89;52.83
12146;BME280;6136;47.032;15.398;2023-03-26T13:47:43;96357.81;;;17.54;54.12
12146;BME280;6136;47.032;15.398;2023-03-26T13:50:17;96359.66;;;17.45;53.98
12146;BME280;6136;47.032;15.398;2023-03-26T13:52:49;96357.66;;;17.31;54.23
12146;BME280;6136;47.032;15.398;2023-03-26T13:55:24;96353.94;;;17.00;55.30
12146;BME280;6136;47.032;15.398;2023-03-26T13:58:00;96355.56;;;16.85;54.43
12146;BME280;6136;47.032;15.398;2023-03-26T14:00:44;96356.09;;;16.88;56.02
12146;BME280;6136;47.032;15.398;2023-03-26T14:03:22;96346.84;;;16.83;55.38
12146;BME280;6136;47.032;15.398;2023-03-26T14:05:54;96355.59;;;17.01;56.53
12146;BME280;6136;47.032;15.398;2023-03-26T14:08:27;96344.25;;;17.15;56.00
12146;BME280;6136;47.032;15.398;2023-03-26T14:11:05;96338.84;;;16.75;55.33
12146;BME280;6136;47.032;15.398;2023-03-26T14:13:42;96327.81;;;16.86;57.17
12146;BME280;6136;47.032;15.398;2023-03-26T14:16:16;96329.50;;;16.87;57.19
12146;BME280;6136;47.032;15.398;2023-03-26T14:18:53;96327.13;;;16.84;57.95
12146;BME280;6136;47.032;15.398;2023-03-26T14:21:51;96323.16;;;17.04;57.59
12146;BME280;6136;47.032;15.398;2023-03-26T14:24:52;96312.09;;;16.91;57.01
12146;BME280;6136;47.032;15.398;2023-03-26T14:27:38;96311.59;;;16.79;58.00
12146;BME280;6136;47.032;15.398;2023-03-26T14:33:25;96304.91;;;16.91;57.21
12146;BME280;6136;47.032;15.398;2023-03-26T14:36:09;96301.06;;;16.86;57.02
12146;BME280;6136;47.032;15.398;2023-03-26T14:39:11;96290.50;;;16.84;58.19
12146;BME280;6136;47.032;15.398;2023-03-26T14:41:49;96285.34;;;16.75;57.92
12146;BME280;6136;47.032;15.398;2023-03-26T14:47:17;96268.44;;;16.74;58.70